sensor_id;sensor_type;location;lat;lon;timestamp;pressure;altitude;pressure_sealevel;temperature;humidity
74431;BME280;62863;52.062;23.764;2024-02-15T00:04:44;1032.5;;;0.7;74.5
74431;BME280;62863;52.062;23.764;2024-02-15T00:09:32;1032.5;;;0.6;73.9
74431;BME280;62863;52.062;23.764;2024-02-15T00:14:52;1032.5;;;0.6;73.5
74431;BME280;62863;52.062;23.764;2024-02-15T00:19:14;1032.4;;;0.4;73.3
74431;BME280;62863;52.062;23.764;2024-02-15T00:24:52;1032.5;;;0.4;73.4
74431;BME280;62863;52.062;23.764;2024-02-15T00:29:38;1032.5;;;0.3;73.2
74431;BME280;62863;52.062;23.764;2024-02-15T00:34:42;1032.6;;;0.3;74.1
74431;BME280;62863;52.062;23.764;2024-02-15T00:39:14;1032.6;;;0.3;75.1
74431;BME280;62863;52.062;23.764;2024-02-15T00:44:44;1032.5;;;0.4;75.5
74431;BME280;62863;52.062;23.764;2024-02-15T00:49:32;1032.6;;;0.5;75.8
74431;BME280;62863;52.062;23.764;2024-02-15T00:54:52;1032.6;;;0.6;75.4
74431;BME280;62863;52.062;23.764;2024-02-15T00:59:34;1032.6;;;0.6;75
74431;BME280;62863;52.062;23.764;2024-02-15T01:04:42;1032.6;;;0.6;74.5
74431;BME280;62863;52.062;23.764;2024-02-15T01:09:36;1032.6;;;0.6;74.7
74431;BME280;62863;52.062;23.764;2024-02-15T01:14:14;1032.6;;;0.7;74.5
74431;BME280;62863;52.062;23.764;2024-02-15T01:19:14;1032.6;;;0.8;74.5
74431;BME280;62863;52.062;23.764;2024-02-15T01:24:14;1032.5;;;0.9;74.3
74431;BME280;62863;52.062;23.764;2024-02-15T01:29:14;1032.5;;;1;74.9
74431;BME280;62863;52.062;23.764;2024-02-15T01:34:52;1032.4;;;1.1;75
74431;BME280;62863;52.062;23.764;2024-02-15T01:39:32;1032.4;;;1.3;74.8
74431;BME280;62863;52.062;23.764;2024-02-15T01:44:52;1032.4;;;1.3;74.7
74431;BME280;62863;52.062;23.764;2024-02-15T01:49:52;1032.4;;;1.4;74.4
74431;BME280;62863;52.062;23.764;2024-02-15T01:54:30;1032.4;;;1.4;74.4
74431;BME280;62863;52.062;23.764;2024-02-15T01:59:52;1032.4;;;1.5;74
74431;BME280;62863;52.062;23.764;2024-02-15T02:04:52;1032.4;;;1.5;73.8
74431;BME280;62863;52.062;23.764;2024-02-15T02:09:28;1032.4;;;1.5;73.7
74431;BME280;62863;52.062;23.764;2024-02-15T02:14:22;1032.4;;;1.6;73.5
74431;BME280;62863;52.062;23.764;2024-02-15T02:19:36;1032.4;;;1.7;73.3
74431;BME280;62863;52.062;23.764;2024-02-15T02:24:52;1032.4;;;1.8;73.6
74431;BME280;62863;52.062;23.764;2024-02-15T02:29:50;1032.4;;;1.8;73.7
74431;BME280;62863;52.062;23.764;2024-02-15T02:34:34;1032.3;;;1.9;73.6
74431;BME280;62863;52.062;23.764;2024-02-15T02:39:42;1032.3;;;1.9;73.5
74431;BME280;62863;52.062;23.764;2024-02-15T02:44:14;1032.3;;;1.9;73.4
74431;BME280;62863;52.062;23.764;2024-02-15T02:49:20;1032.3;;;2;73.5
74431;BME280;62863;52.062;23.764;2024-02-15T02:54:17;1032.3;;;2;73.3
74431;BME280;62863;52.062;23.764;2024-02-15T02:59:22;1032.3;;;2;73
74431;BME280;62863;52.062;23.764;2024-02-15T03:04:14;1032.3;;;2;72.8
74431;BME280;62863;52.062;23.764;2024-02-15T03:09:28;1032.3;;;2;72.6
74431;BME280;62863;52.062;23.764;2024-02-15T03:14:16;1032.3;;;2;72.7
74431;BME280;62863;52.062;23.764;2024-02-15T03:19:28;1032.4;;;2;72.9
74431;BME280;62863;52.062;23.764;2024-02-15T03:24:50;1032.4;;;2;73.4
74431;BME280;62863;52.062;23.764;2024-02-15T03:29:20;1032.4;;;2;73.7
74431;BME280;62863;52.062;23.764;2024-02-15T03:34:50;1032.5;;;2;73.7
74431;BME280;62863;52.062;23.764;2024-02-15T03:39:22;1032.5;;;2;73.7
74431;BME280;62863;52.062;23.764;2024-02-15T03:44:42;1032.5;;;2.1;73.7
74431;BME280;62863;52.062;23.764;2024-02-15T03:49:28;1032.5;;;2.1;73.6
74431;BME280;62863;52.062;23.764;2024-02-15T03:54:36;1032.4;;;2.2;73.1
74431;BME280;62863;52.062;23.764;2024-02-15T03:59:52;1032.4;;;2.2;72.7
74431;BME280;62863;52.062;23.764;2024-02-15T04:04:42;1032.4;;;2.2;72.6
74431;BME280;62863;52.062;23.764;2024-02-15T04:09:34;1032.4;;;2.2;72.6
74431;BME280;62863;52.062;23.764;2024-02-15T04:14:52;1032.4;;;2.3;72.5
74431;BME280;62863;52.062;23.764;2024-02-15T04:19:46;1032.5;;;2.3;72.8
74431;BME280;62863;52.062;23.764;2024-02-15T04:24:36;1032.4;;;2.4;73
74431;BME280;62863;52.062;23.764;2024-02-15T04:29:22;1032.4;;;2.4;72.7
74431;BME280;62863;52.062;23.764;2024-02-15T04:34:22;1032.5;;;2.5;72.5
74431;BME280;62863;52.062;23.764;2024-02-15T04:39:14;1032.4;;;2.5;72.3
74431;BME280;62863;52.062;23.764;2024-02-15T04:44:14;1032.4;;;2.6;72.3
74431;BME280;62863;52.062;23.764;2024-02-15T04:49:36;1032.4;;;2.6;72.1
74431;BME280;62863;52.062;23.764;2024-02-15T04:54:22;1032.4;;;2.6;71.9
74431;BME280;62863;52.062;23.764;2024-02-15T04:59:52;1032.4;;;2.6;71.9
74431;BME280;62863;52.062;23.764;2024-02-15T05:04:14;1032.5;;;2.6;71.8
74431;BME280;62863;52.062;23.764;2024-02-15T05:09:52;1032.5;;;2.6;71.7
74431;BME280;62863;52.062;23.764;2024-02-15T05:14:22;1032.5;;;2.6;71.8
74431;BME280;62863;52.062;23.764;2024-02-15T05:19:30;1032.5;;;2.7;71.8
74431;BME280;62863;52.062;23.764;2024-02-15T05:24:28;1032.5;;;2.7;71.9
74431;BME280;62863;52.062;23.764;2024-02-15T05:29:16;1032.5;;;2.7;71.3
74431;BME280;62863;52.062;23.764;2024-02-15T05:34:52;1032.4;;;2.7;71.1
74431;BME280;62863;52.062;23.764;2024-02-15T05:39:42;1032.4;;;2.8;71.1
74431;BME280;62863;52.062;23.764;2024-02-15T05:44:26;1032.4;;;2.8;71.1
74431;BME280;62863;52.062;23.764;2024-02-15T05:49:50;1032.5;;;2.8;71.1
74431;BME280;62863;52.062;23.764;2024-02-15T05:54:32;1032.5;;;2.9;71.2
74431;BME280;62863;52.062;23.764;2024-02-15T05:59:42;1032.5;;;2.9;71.1
74431;BME280;62863;52.062;23.764;2024-02-15T06:04:46;1032.6;;;2.9;71
74431;BME280;62863;52.062;23.764;2024-02-15T06:09:30;1032.6;;;3;70.7
74431;BME280;62863;52.062;23.764;2024-02-15T06:14:14;1032.6;;;3;70.5
74431;BME280;62863;52.062;23.764;2024-02-15T06:19:28;1032.6;;;3.1;70.3
74431;BME280;62863;52.062;23.764;2024-02-15T06:24:14;1032.7;;;3.2;70.1
74431;BME280;62863;52.062;23.764;2024-02-15T06:29:44;1032.8;;;3.2;70.2
74431;BME280;62863;52.062;23.764;2024-02-15T06:34:52;1032.8;;;3.2;70
74431;BME280;62863;52.062;23.764;2024-02-15T06:39:30;1032.8;;;3.2;69.9
74431;BME280;62863;52.062;23.764;2024-02-15T06:44:52;1032.8;;;3.3;69.8
74431;BME280;62863;52.062;23.764;2024-02-15T06:49:45;1032.8;;;3.4;69.4
74431;BME280;62863;52.062;23.764;2024-02-15T06:54:38;1032.8;;;3.4;69.1
74431;BME280;62863;52.062;23.764;2024-02-15T06:59:52;1032.9;;;3.5;68.8
74431;BME280;62863;52.062;23.764;2024-02-15T07:04:38;1032.9;;;3.6;68.7
74431;BME280;62863;52.062;23.764;2024-02-15T07:09:42;1033;;;3.7;68.5
74431;BME280;62863;52.062;23.764;2024-02-15T07:14:28;1033;;;3.8;68.5
74431;BME280;62863;52.062;23.764;2024-02-15T07:19:34;1033;;;3.9;68.2
74431;BME280;62863;52.062;23.764;2024-02-15T07:24:44;1033;;;4;68.2
74431;BME280;62863;52.062;23.764;2024-02-15T07:29:52;1033;;;4.1;67.9
74431;BME280;62863;52.062;23.764;2024-02-15T07:34:14;1033;;;4.3;67.5
74431;BME280;62863;52.062;23.764;2024-02-15T07:39:30;1033;;;4.4;67.2
74431;BME280;62863;52.062;23.764;2024-02-15T07:44:16;1033;;;4.4;66.8
74431;BME280;62863;52.062;23.764;2024-02-15T07:49:14;1033;;;4.5;66.5
74431;BME280;62863;52.062;23.764;2024-02-15T07:54:24;1033;;;4.6;66.3
74431;BME280;62863;52.062;23.764;2024-02-15T07:59:24;1033;;;4.7;66.1
74431;BME280;62863;52.062;23.764;2024-02-15T08:04:32;1033.1;;;4.8;65.7
74431;BME280;62863;52.062;23.764;2024-02-15T08:09:52;1033.1;;;5;65.5
74431;BME280;62863;52.062;23.764;2024-02-15T08:14:16;1033;;;5.2;65.2
74431;BME280;62863;52.062;23.764;2024-02-15T08:19:52;1033;;;5.5;64.7
74431;BME280;62863;52.062;23.764;2024-02-15T08:24:52;1033.1;;;5.7;64.1
74431;BME280;62863;52.062;23.764;2024-02-15T08:29:36;1033.1;;;5.8;63.9
74431;BME280;62863;52.062;23.764;2024-02-15T08:34:52;1033.1;;;6;63.7
74431;BME280;62863;52.062;23.764;2024-02-15T08:39:52;1033.1;;;6.1;62.8
74431;BME280;62863;52.062;23.764;2024-02-15T08:44:42;1033.2;;;6.4;62.2
74431;BME280;62863;52.062;23.764;2024-02-15T08:49:28;1033.1;;;6.7;61.8
74431;BME280;62863;52.062;23.764;2024-02-15T08:54:38;1033.1;;;7.1;60.5
74431;BME280;62863;52.062;23.764;2024-02-15T08:59:44;1033.1;;;7.3;59.5
74431;BME280;62863;52.062;23.764;2024-02-15T09:04:50;1033.1;;;7.7;58.7
74431;BME280;62863;52.062;23.764;2024-02-15T09:09:34;1033.1;;;8.1;57.7
74431;BME280;62863;52.062;23.764;2024-02-15T09:14:40;1033.2;;;8.2;57.1
74431;BME280;62863;52.062;23.764;2024-02-15T09:19:22;1033.1;;;8.2;57.2
74431;BME280;62863;52.062;23.764;2024-02-15T09:24:14;1033.1;;;8.5;57
74431;BME280;62863;52.062;23.764;2024-02-15T09:29:24;1033.1;;;8.5;56.4
74431;BME280;62863;52.062;23.764;2024-02-15T09:34:23;1033.2;;;8.4;56
74431;BME280;62863;52.062;23.764;2024-02-15T09:39:36;1033.2;;;8.4;55.9
74431;BME280;62863;52.062;23.764;2024-02-15T09:44:52;1033.1;;;8.6;55.9
74431;BME280;62863;52.062;23.764;2024-02-15T09:49:33;1033.1;;;8.8;55.1
74431;BME280;62863;52.062;23.764;2024-02-15T09:54:50;1033.1;;;8.9;54.7
74431;BME280;62863;52.062;23.764;2024-02-15T09:59:53;1033;;;8.9;54.4
74431;BME280;62863;52.062;23.764;2024-02-15T10:04:14;1033;;;9.1;54
74431;BME280;62863;52.062;23.764;2024-02-15T10:09:42;1033;;;9.3;53.5
74431;BME280;62863;52.062;23.764;2024-02-15T10:14:51;1032.9;;;9.5;53.1
74431;BME280;62863;52.062;23.764;2024-02-15T10:19:16;1032.9;;;9.6;52.4
74431;BME280;62863;52.062;23.764;2024-02-15T10:24:28;1032.9;;;9.7;51.8
74431;BME280;62863;52.062;23.764;2024-02-15T10:29:19;1032.8;;;9.8;51.8
74431;BME280;62863;52.062;23.764;2024-02-15T10:34:44;1032.7;;;9.8;51
74431;BME280;62863;52.062;23.764;2024-02-15T10:40:03;1032.7;;;9.8;51
74431;BME280;62863;52.062;23.764;2024-02-15T10:44:32;1032.7;;;9.8;50.8
74431;BME280;62863;52.062;23.764;2024-02-15T10:49:52;1032.7;;;9.7;51.1
74431;BME280;62863;52.062;23.764;2024-02-15T10:54:40;1032.7;;;9.9;50.6
74431;BME280;62863;52.062;23.764;2024-02-15T10:59:31;1032.7;;;10.1;50.6
74431;BME280;62863;52.062;23.764;2024-02-15T11:04:25;1032.6;;;10.4;50
74431;BME280;62863;52.062;23.764;2024-02-15T11:09:23;1032.5;;;10.5;49.9
74431;BME280;62863;52.062;23.764;2024-02-15T11:14:34;1032.5;;;10.5;49
74431;BME280;62863;52.062;23.764;2024-02-15T11:19:54;1032.5;;;10.4;48.8
74431;BME280;62863;52.062;23.764;2024-02-15T11:24:45;1032.5;;;10.2;49.1
74431;BME280;62863;52.062;23.764;2024-02-15T11:30:02;1032.5;;;10.4;48.7
74431;BME280;62863;52.062;23.764;2024-02-15T11:34:53;1032.5;;;10.5;48.6
74431;BME280;62863;52.062;23.764;2024-02-15T11:39:46;1032.5;;;10.4;48.5
74431;BME280;62863;52.062;23.764;2024-02-15T11:44:55;1032.4;;;10.1;48.8
74431;BME280;62863;52.062;23.764;2024-02-15T11:49:39;1032.3;;;10.4;49.3
74431;BME280;62863;52.062;23.764;2024-02-15T11:54:29;1032.3;;;10.4;49
74431;BME280;62863;52.062;23.764;2024-02-15T11:59:29;1032.3;;;10.4;49.3
74431;BME280;62863;52.062;23.764;2024-02-15T12:04:33;1032.3;;;10.3;49
74431;BME280;62863;52.062;23.764;2024-02-15T12:09:57;1032.3;;;10.3;48.8
74431;BME280;62863;52.062;23.764;2024-02-15T12:14:43;1032.3;;;10.4;48.4
74431;BME280;62863;52.062;23.764;2024-02-15T12:19:15;1032.2;;;10.3;48.7
74431;BME280;62863;52.062;23.764;2024-02-15T12:24:53;1032.2;;;10.4;48.3
74431;BME280;62863;52.062;23.764;2024-02-15T12:29:43;1032.1;;;10.3;48.4
74431;BME280;62863;52.062;23.764;2024-02-15T12:34:45;1032.1;;;10.5;48.5
74431;BME280;62863;52.062;23.764;2024-02-15T12:39:35;1032.2;;;10.6;48.7
74431;BME280;62863;52.062;23.764;2024-02-15T12:44:23;1032.1;;;10.8;48
74431;BME280;62863;52.062;23.764;2024-02-15T12:49:35;1032;;;10.6;47.9
74431;BME280;62863;52.062;23.764;2024-02-15T12:54:23;1032;;;10.5;48.3
74431;BME280;62863;52.062;23.764;2024-02-15T12:59:45;1032;;;10.6;48.3
74431;BME280;62863;52.062;23.764;2024-02-15T13:04:45;1032;;;10.3;48.5
74431;BME280;62863;52.062;23.764;2024-02-15T13:09:17;1031.9;;;10.5;48.2
74431;BME280;62863;52.062;23.764;2024-02-15T13:14:31;1032;;;10.8;47.7
74431;BME280;62863;52.062;23.764;2024-02-15T13:19:53;1032;;;11;46.8
74431;BME280;62863;52.062;23.764;2024-02-15T13:24:45;1032;;;10.6;46.4
74431;BME280;62863;52.062;23.764;2024-02-15T13:29:39;1032;;;10.6;46.5
74431;BME280;62863;52.062;23.764;2024-02-15T13:34:15;1032;;;10.6;46.6
74431;BME280;62863;52.062;23.764;2024-02-15T13:39:37;1031.9;;;10.5;46.6
74431;BME280;62863;52.062;23.764;2024-02-15T13:44:51;1031.9;;;10.4;46.5
74431;BME280;62863;52.062;23.764;2024-02-15T13:49:41;1031.9;;;10.3;46.8
74431;BME280;62863;52.062;23.764;2024-02-15T13:54:33;1031.9;;;10.4;47.2
74431;BME280;62863;52.062;23.764;2024-02-15T13:59:51;1031.9;;;10.3;47.9
74431;BME280;62863;52.062;23.764;2024-02-15T14:04:51;1031.8;;;10.1;48.4
74431;BME280;62863;52.062;23.764;2024-02-15T14:09:45;1031.8;;;9.8;49.1
74431;BME280;62863;52.062;23.764;2024-02-15T14:14:27;1031.8;;;9.5;49.6
74431;BME280;62863;52.062;23.764;2024-02-15T14:19:23;1031.7;;;9.3;50.2
74431;BME280;62863;52.062;23.764;2024-02-15T14:24:15;1031.9;;;9.1;50.6
74431;BME280;62863;52.062;23.764;2024-02-15T14:29:31;1031.9;;;9.1;51
74431;BME280;62863;52.062;23.764;2024-02-15T14:34:15;1031.9;;;9;51
74431;BME280;62863;52.062;23.764;2024-02-15T14:39:31;1031.9;;;8.9;51.3
74431;BME280;62863;52.062;23.764;2024-02-15T14:44:23;1031.9;;;8.9;51.7
74431;BME280;62863;52.062;23.764;2024-02-15T14:49:31;1031.9;;;8.8;51.3
74431;BME280;62863;52.062;23.764;2024-02-15T14:54:53;1032;;;8.7;51.3
74431;BME280;62863;52.062;23.764;2024-02-15T14:59:43;1032;;;8.6;51.5
74431;BME280;62863;52.062;23.764;2024-02-15T15:04:39;1032;;;8.5;51.7
74431;BME280;62863;52.062;23.764;2024-02-15T15:09:15;1032;;;8.4;51.6
74431;BME280;62863;52.062;23.764;2024-02-15T15:14:39;1032;;;8.3;51.9
74431;BME280;62863;52.062;23.764;2024-02-15T15:19:43;1032.1;;;8.2;52.3
74431;BME280;62863;52.062;23.764;2024-02-15T15:24:21;1032;;;8.1;52.2
74431;BME280;62863;52.062;23.764;2024-02-15T15:29:35;1032;;;8.1;52.2
74431;BME280;62863;52.062;23.764;2024-02-15T15:34:37;1032.1;;;8;52.7
74431;BME280;62863;52.062;23.764;2024-02-15T15:39:53;1032.1;;;8;52.6
74431;BME280;62863;52.062;23.764;2024-02-15T15:44:15;1032.1;;;7.9;52.5
74431;BME280;62863;52.062;23.764;2024-02-15T15:49:35;1032.2;;;7.8;52.5
74431;BME280;62863;52.062;23.764;2024-02-15T15:54:23;1032.3;;;7.8;52.8
74431;BME280;62863;52.062;23.764;2024-02-15T15:59:21;1032.3;;;7.8;53
74431;BME280;62863;52.062;23.764;2024-02-15T16:04:15;1032.3;;;7.7;53.3
74431;BME280;62863;52.062;23.764;2024-02-15T16:09:15;1032.2;;;7.6;54
74431;BME280;62863;52.062;23.764;2024-02-15T16:14:23;1032.3;;;7.5;54.6
74431;BME280;62863;52.062;23.764;2024-02-15T16:19:53;1032.4;;;7.5;55.2
74431;BME280;62863;52.062;23.764;2024-02-15T16:24:45;1032.3;;;7.4;55.8
74431;BME280;62863;52.062;23.764;2024-02-15T16:29:37;1032.3;;;7.4;56.4
74431;BME280;62863;52.062;23.764;2024-02-15T16:34:53;1032.4;;;7.4;56.7
74431;BME280;62863;52.062;23.764;2024-02-15T16:39:45;1032.4;;;7.3;56.9
74431;BME280;62863;52.062;23.764;2024-02-15T16:44:53;1032.5;;;7.2;57.3
74431;BME280;62863;52.062;23.764;2024-02-15T16:49:54;1032.6;;;7.1;57.6
74431;BME280;62863;52.062;23.764;2024-02-15T16:54:43;1032.7;;;7;57.8
74431;BME280;62863;52.062;23.764;2024-02-15T16:59:30;1032.7;;;7;58.1
74431;BME280;62863;52.062;23.764;2024-02-15T17:04:39;1032.8;;;7;58.5
74431;BME280;62863;52.062;23.764;2024-02-15T17:09:45;1032.8;;;6.9;58.7
74431;BME280;62863;52.062;23.764;2024-02-15T17:14:53;1032.8;;;6.9;58.9
74431;BME280;62863;52.062;23.764;2024-02-15T17:19:27;1032.8;;;6.8;59.2
74431;BME280;62863;52.062;23.764;2024-02-15T17:24:53;1032.9;;;6.7;59.7
74431;BME280;62863;52.062;23.764;2024-02-15T17:29:35;1032.9;;;6.7;59.7
74431;BME280;62863;52.062;23.764;2024-02-15T17:34:15;1033;;;6.6;60.1
74431;BME280;62863;52.062;23.764;2024-02-15T17:39:23;1033.1;;;6.6;60.2
74431;BME280;62863;52.062;23.764;2024-02-15T17:44:23;1033.1;;;6.6;60.1
74431;BME280;62863;52.062;23.764;2024-02-15T17:49:45;1033.1;;;6.5;60.3
74431;BME280;62863;52.062;23.764;2024-02-15T17:54:15;1033;;;6.5;60.3
74431;BME280;62863;52.062;23.764;2024-02-15T17:59:42;1033;;;6.4;60.6
74431;BME280;62863;52.062;23.764;2024-02-15T18:04:31;1033;;;6.3;60.8
74431;BME280;62863;52.062;23.764;2024-02-15T18:09:53;1033;;;6.3;61.3
74431;BME280;62863;52.062;23.764;2024-02-15T18:14:23;1033;;;6.2;61.6
74431;BME280;62863;52.062;23.764;2024-02-15T18:19:53;1033;;;6.1;62
74431;BME280;62863;52.062;23.764;2024-02-15T18:24:53;1032.9;;;5.9;62.6
74431;BME280;62863;52.062;23.764;2024-02-15T18:29:43;1032.9;;;5.8;63.2
74431;BME280;62863;52.062;23.764;2024-02-15T18:34:29;1033;;;5.7;63.4
74431;BME280;62863;52.062;23.764;2024-02-15T18:39:39;1032.9;;;5.5;63.6
74431;BME280;62863;52.062;23.764;2024-02-15T18:44:45;1033;;;5.5;63.6
74431;BME280;62863;52.062;23.764;2024-02-15T18:49:53;1033.1;;;5.5;63.7
74431;BME280;62863;52.062;23.764;2024-02-15T18:54:15;1033.2;;;5.6;63.8
74431;BME280;62863;52.062;23.764;2024-02-15T18:59:43;1033.2;;;5.7;63.5
74431;BME280;62863;52.062;23.764;2024-02-15T19:04:35;1033.3;;;5.7;63.3
74431;BME280;62863;52.062;23.764;2024-02-15T19:09:23;1033.4;;;5.7;63.3
74431;BME280;62863;52.062;23.764;2024-02-15T19:14:15;1033.4;;;5.7;63.3
74431;BME280;62863;52.062;23.764;2024-02-15T19:19:29;1033.4;;;5.7;63.1
74431;BME280;62863;52.062;23.764;2024-02-15T19:24:15;1033.4;;;5.7;63.4
74431;BME280;62863;52.062;23.764;2024-02-15T19:29:31;1033.3;;;5.7;63.4
74431;BME280;62863;52.062;23.764;2024-02-15T19:34:44;1033.3;;;5.8;63.2
74431;BME280;62863;52.062;23.764;2024-02-15T19:39:23;1033.4;;;5.7;63.1
74431;BME280;62863;52.062;23.764;2024-02-15T19:44:53;1033.3;;;5.7;63
74431;BME280;62863;52.062;23.764;2024-02-15T19:49:17;1033.3;;;5.7;63
74431;BME280;62863;52.062;23.764;2024-02-15T19:54:53;1033.3;;;5.7;62.9
74431;BME280;62863;52.062;23.764;2024-02-15T19:59:29;1033.2;;;5.6;62.9
74431;BME280;62863;52.062;23.764;2024-02-15T20:04:43;1033.3;;;5.6;62.9
74431;BME280;62863;52.062;23.764;2024-02-15T20:09:43;1033.3;;;5.6;62.9
74431;BME280;62863;52.062;23.764;2024-02-15T20:14:29;1033.3;;;5.6;63
74431;BME280;62863;52.062;23.764;2024-02-15T20:19:51;1033.3;;;5.5;63
74431;BME280;62863;52.062;23.764;2024-02-15T20:24:17;1033.3;;;5.5;63.3
74431;BME280;62863;52.062;23.764;2024-02-15T20:29:33;1033.2;;;5.5;63.1
74431;BME280;62863;52.062;23.764;2024-02-15T20:34:51;1033.2;;;5.4;63.2
74431;BME280;62863;52.062;23.764;2024-02-15T20:39:49;1033.2;;;5.4;63.2
74431;BME280;62863;52.062;23.764;2024-02-15T20:44:43;1033.2;;;5.4;63.3
74431;BME280;62863;52.062;23.764;2024-02-15T20:49:15;1033.2;;;5.4;63.4
74431;BME280;62863;52.062;23.764;2024-02-15T20:54:29;1033.2;;;5.4;63.3
74431;BME280;62863;52.062;23.764;2024-02-15T20:59:27;1033.2;;;5.3;63.5
74431;BME280;62863;52.062;23.764;2024-02-15T21:04:15;1033.1;;;5.3;63.9
74431;BME280;62863;52.062;23.764;2024-02-15T21:09:15;1033;;;5.2;64.1
74431;BME280;62863;52.062;23.764;2024-02-15T21:14:29;1033.1;;;5.2;64.3
74431;BME280;62863;52.062;23.764;2024-02-15T21:19:29;1033;;;5.2;64.5
74431;BME280;62863;52.062;23.764;2024-02-15T21:24:29;1033;;;5.2;64.9
74431;BME280;62863;52.062;23.764;2024-02-15T21:29:51;1033;;;5.2;64.9
74431;BME280;62863;52.062;23.764;2024-02-15T21:34:43;1032.9;;;5.1;64.7
74431;BME280;62863;52.062;23.764;2024-02-15T21:39:17;1032.9;;;5.1;64.8
74431;BME280;62863;52.062;23.764;2024-02-15T21:44:21;1032.9;;;5.1;64.8
74431;BME280;62863;52.062;23.764;2024-02-15T21:49:37;1032.9;;;5.1;64.6
74431;BME280;62863;52.062;23.764;2024-02-15T21:54:41;1032.9;;;5;64.6
74431;BME280;62863;52.062;23.764;2024-02-15T21:59:21;1032.9;;;5.1;64.6
74431;BME280;62863;52.062;23.764;2024-02-15T22:04:15;1033;;;5.1;64.5
74431;BME280;62863;52.062;23.764;2024-02-15T22:09:37;1033;;;5.1;64.5
74431;BME280;62863;52.062;23.764;2024-02-15T22:14:51;1033;;;5;64.3
74431;BME280;62863;52.062;23.764;2024-02-15T22:19:51;1033;;;5;64.4
74431;BME280;62863;52.062;23.764;2024-02-15T22:24:41;1033;;;5;64.6
74431;BME280;62863;52.062;23.764;2024-02-15T22:29:21;1033;;;5;64.4
74431;BME280;62863;52.062;23.764;2024-02-15T22:34:21;1033.1;;;5;64.2
74431;BME280;62863;52.062;23.764;2024-02-15T22:39:21;1033.1;;;4.9;64
74431;BME280;62863;52.062;23.764;2024-02-15T22:44:15;1033.1;;;4.9;64.2
74431;BME280;62863;52.062;23.764;2024-02-15T22:49:15;1033.1;;;4.9;64
74431;BME280;62863;52.062;23.764;2024-02-15T22:54:51;1033.1;;;4.9;64
74431;BME280;62863;52.062;23.764;2024-02-15T22:59:43;1033.1;;;4.8;63.8
74431;BME280;62863;52.062;23.764;2024-02-15T23:04:51;1033.1;;;4.8;64
74431;BME280;62863;52.062;23.764;2024-02-15T23:09:31;1033.2;;;4.8;63.7
74431;BME280;62863;52.062;23.764;2024-02-15T23:14:37;1033.2;;;4.8;63.6
74431;BME280;62863;52.062;23.764;2024-02-15T23:19:21;1033.2;;;4.8;63.4
74431;BME280;62863;52.062;23.764;2024-02-15T23:24:29;1033.1;;;4.8;63.5
74431;BME280;62863;52.062;23.764;2024-02-15T23:29:41;1033.1;;;4.8;63.5
74431;BME280;62863;52.062;23.764;2024-02-15T23:34:51;1033.1;;;4.9;63.1
74431;BME280;62863;52.062;23.764;2024-02-15T23:39:33;1033.1;;;4.9;62.8
74431;BME280;62863;52.062;23.764;2024-02-15T23:44:49;1033.1;;;4.8;62.7
74431;BME280;62863;52.062;23.764;2024-02-15T23:49:49;1033.2;;;4.8;62.4
74431;BME280;62863;52.062;23.764;2024-02-15T23:54:31;1033.2;;;4.8;62.4
74431;BME280;62863;52.062;23.764;2024-02-15T23:59:39;1033.1;;;4.8;62.3
